Pacu — WDH2419 — position and weather

sailwx.info

Track history (hours):
 
Tides and Currents Weather Stations Pressure Air Temp Water Temp Dewpoint Dewpoint Depression Visibility Wind Speed Wind Dir Waves Ship Positions

Pacu

Owner: Florin, Juan M, Woodstock, VT. More information available from US FCC via Universal Licensing System and Coast Guard Vessel Documentation Center.

Last reported at 2019-Mar-18 21:16 UTC. Time now 2019-Apr-19 23:00 UTC.
Position N 32°13' W 080°47'.
Warning: this ship's position is 32 days out of date.

Length 17 m.

Type: Sailing vessel. MMSI: 367597380.

Date/timePositionNaut miles runAvg speedWind from/ knotsBaromVisibWave heightAir tempDewpointWater temp
2019-Mar-18 21:16N 32°13' W 080°47'0 0.7
2019-Mar-18 20:55N 32°13' W 080°47'3 6.0
2019-Mar-18 20:27N 32°10' W 080°48'3 5.9
2019-Mar-18 20:00N 32°09' W 080°51'2 4.3
2019-Mar-18 19:30N 32°08' W 080°53'1 2.8
2019-Mar-18 19:00N 32°07' W 080°54'2 4.4
2019-Mar-18 18:30N 32°05' W 080°54'1 2.2
2019-Mar-18 17:56N 32°05' W 080°53'0 0.0
2019-Mar-16 16:26N 32°05' W 080°53'1 2.1
2019-Mar-16 16:00N 32°05' W 080°54'2 4.5
2019-Mar-16 15:30N 32°07' W 080°54'3 5.3
2019-Mar-16 15:00N 32°09' W 080°52'4 6.8
2019-Mar-16 14:28N 32°10' W 080°48'  
Track history (hours):
 
Tides and Currents Weather Stations Pressure Air Temp Water Temp Dewpoint Dewpoint Depression Visibility Wind Speed Wind Dir Waves Ship Positions

Pacu

Owner: Florin, Juan M, Woodstock, VT. More information available from US FCC via Universal Licensing System and Coast Guard Vessel Documentation Center.

Last reported at 2019-Mar-18 21:16 UTC. Time now 2019-Apr-19 23:00 UTC.
Position N 32°13' W 080°47'.
Warning: this ship's position is 32 days out of date.

Length 17 m.

Type: Sailing vessel. MMSI: 367597380.

Date/timePositionNaut miles runAvg speedWind from/ knotsBaromVisibWave heightAir tempDewpointWater temp
2019-Mar-18 21:16N 32°13' W 080°47'0 0.7
2019-Mar-18 20:55N 32°13' W 080°47'3 6.0
2019-Mar-18 20:27N 32°10' W 080°48'3 5.9
2019-Mar-18 20:00N 32°09' W 080°51'2 4.3
2019-Mar-18 19:30N 32°08' W 080°53'1 2.8
2019-Mar-18 19:00N 32°07' W 080°54'2 4.4
2019-Mar-18 18:30N 32°05' W 080°54'1 2.2
2019-Mar-18 17:56N 32°05' W 080°53'0 0.0
2019-Mar-16 16:26N 32°05' W 080°53'1 2.1
2019-Mar-16 16:00N 32°05' W 080°54'2 4.5
2019-Mar-16 15:30N 32°07' W 080°54'3 5.3
2019-Mar-16 15:00N 32°09' W 080°52'4 6.8
2019-Mar-16 14:28N 32°10' W 080°48'  

Dump ship's entire track history